Terminal Aerodrome Forecast
Issued by NWS

Home | Current Version | Previous Version | Text Only | Print | Product List | Glossary On
Versions: 1 2 3 4 5 6 7 8 9 10 11 12 13 14 15 16 17 18 19 20 21 22 23 24 25 26 27 28 29 30 31 32 33 34 35 36 37 38 39 40 41 42 43 44 45 46 47 48 49 50
613
FTUS42 KMFL 192129 AAA
TAFTMB
TAF AMD
KTMB 192129Z 1921/2018 05010KT P6SM VCSH SCT015 BKN025 OVC030
     FM200100 03009KT 4SM -SHRA SCT008 BKN015 OVC030
     FM201000 36006KT P6SM VCSH SCT015 BKN030 OVC060
     FM201600 03008KT P6SM SCT020 BKN050 BKN080=

USA.gov is the U.S. government's official web portal to all federal, state and local government web resources and services.